createdAt,value
2019-02-26T00:06:04.145Z,15.75
2019-02-26T00:12:06.483Z,12.13
2019-02-26T00:18:11.556Z,16.85
2019-02-26T00:24:14.502Z,14.50
2019-02-26T00:30:18.486Z,15.18
2019-02-26T00:36:21.967Z,15.85
2019-02-26T00:42:26.230Z,15.00
2019-02-26T00:48:31.417Z,12.05
2019-02-26T00:54:34.286Z,13.22
2019-02-26T01:00:36.336Z,12.63
2019-02-26T01:06:39.726Z,15.60
2019-02-26T01:12:42.605Z,15.32
2019-02-26T01:18:46.684Z,14.05
2019-02-26T01:24:49.795Z,13.88
2019-02-26T01:30:55.556Z,15.03
2019-02-26T01:36:57.368Z,13.95
2019-02-26T01:43:01.086Z,14.63
2019-02-26T01:49:04.307Z,17.92
2019-02-26T01:55:08.114Z,19.67
2019-02-26T02:01:12.365Z,17.75
2019-02-26T02:07:14.842Z,18.77
2019-02-26T02:13:17.080Z,15.13
2019-02-26T02:19:22.241Z,15.38
2019-02-26T02:25:23.592Z,16.37
2019-02-26T02:31:28.071Z,14.90
2019-02-26T02:37:31.914Z,17.07
2019-02-26T02:43:33.979Z,13.13
2019-02-26T02:49:37.476Z,12.50
2019-02-26T02:55:41.104Z,14.93
2019-02-26T03:01:45.799Z,13.78
2019-02-26T03:07:50.989Z,13.22
2019-02-26T03:13:53.843Z,14.47
2019-02-26T03:19:58.446Z,14.33
2019-02-26T03:26:00.392Z,14.63
2019-02-26T03:32:02.620Z,12.45
2019-02-26T03:38:04.866Z,19.23
2019-02-26T03:44:08.752Z,15.48
2019-02-26T03:50:12.838Z,16.50
2019-02-26T03:56:17.770Z,16.25
2019-02-26T04:02:20.926Z,13.30
2019-02-26T04:08:25.087Z,16.12
2019-02-26T04:14:30.492Z,15.88
2019-02-26T04:20:32.265Z,15.60
2019-02-26T04:26:49.929Z,15.70
2019-02-26T04:33:36.038Z,15.35
2019-02-26T04:40:02.400Z,16.05
2019-02-26T04:46:39.492Z,18.57
2019-02-26T04:52:43.538Z,16.42
2019-02-26T04:58:47.767Z,17.23
2019-02-26T05:04:49.792Z,21.52
2019-02-26T05:10:54.222Z,18.80
2019-02-26T05:16:56.111Z,14.83
2019-02-26T05:23:00.536Z,15.00
2019-02-26T05:29:05.749Z,17.87
2019-02-26T05:35:07.974Z,15.13
2019-02-26T05:41:10.155Z,17.40
2019-02-26T05:47:13.165Z,13.45
2019-02-26T05:53:16.435Z,11.95
2019-02-26T05:59:21.454Z,16.60
2019-02-26T06:05:23.240Z,15.28
2019-02-26T06:11:30.838Z,12.53
2019-02-26T06:17:30.699Z,14.10
2019-02-26T06:23:34.501Z,18.67
2019-02-26T06:29:37.434Z,21.30
2019-02-26T06:35:40.697Z,17.62
2019-02-26T06:41:44.346Z,19.10
2019-02-26T06:47:50.738Z,21.80
2019-02-26T06:53:54.081Z,18.82
2019-02-26T06:59:58.409Z,17.42
2019-02-26T07:06:03.155Z,14.25
2019-02-26T07:12:05.507Z,13.05
2019-02-26T07:18:10.247Z,15.08
2019-02-26T07:24:11.904Z,13.43
2019-02-26T07:30:14.254Z,12.70
2019-02-26T07:36:18.337Z,12.13
2019-02-26T07:42:20.817Z,14.03
2019-02-26T07:48:23.725Z,11.95
2019-02-26T07:54:28.717Z,16.15
2019-02-26T08:00:32.853Z,14.35
2019-02-26T08:06:36.190Z,11.50
2019-02-26T08:12:40.865Z,11.85
2019-02-26T08:18:43.567Z,11.43
2019-02-26T08:24:47.820Z,12.18
2019-02-26T08:30:54.296Z,14.25
2019-02-26T08:36:57.388Z,18.95
2019-02-26T08:42:59.703Z,13.58
2019-02-26T08:49:08.323Z,16.37
2019-02-26T08:55:07.254Z,18.02
2019-02-26T09:01:09.611Z,16.42
2019-02-26T09:07:14.093Z,17.30
2019-02-26T09:13:19.006Z,15.08
2019-02-26T09:19:22.674Z,14.78
2019-02-26T09:25:28.661Z,16.55
2019-02-26T09:31:29.546Z,19.10
2019-02-26T09:37:32.635Z,24.37
2019-02-26T09:43:38.650Z,19.70
2019-02-26T09:49:41.038Z,19.92
2019-02-26T09:55:43.280Z,19.30
2019-02-26T10:01:45.506Z,21.77
2019-02-26T10:07:47.819Z,22.67
2019-02-26T10:13:54.651Z,19.80
2019-02-26T10:19:59.358Z,24.82
2019-02-26T10:26:03.326Z,28.98
2019-02-26T10:32:06.177Z,24.10
2019-02-26T10:38:11.502Z,27.00
2019-02-26T10:44:14.602Z,20.77
2019-02-26T10:50:19.549Z,19.60
2019-02-26T10:56:21.245Z,20.20
2019-02-26T11:02:25.709Z,18.27
2019-02-26T11:08:29.655Z,17.60
2019-02-26T11:14:33.991Z,16.80
2019-02-26T11:20:35.978Z,15.53
2019-02-26T11:26:39.024Z,15.35
2019-02-26T11:32:42.341Z,19.82
2019-02-26T11:38:46.919Z,17.05
2019-02-26T11:44:51.079Z,17.23
2019-02-26T11:50:53.237Z,18.12
2019-02-26T11:56:55.544Z,14.95
2019-02-26T12:02:58.938Z,18.05
2019-02-26T12:09:03.039Z,18.55
2019-02-26T12:15:11.083Z,16.62
2019-02-26T12:21:12.913Z,15.53
2019-02-26T12:27:18.213Z,16.12
2019-02-26T12:33:19.502Z,17.42
2019-02-26T12:39:24.831Z,14.28
2019-02-26T12:45:28.413Z,18.15
2019-02-26T12:51:31.766Z,17.05
2019-02-26T12:57:34.209Z,15.48
2019-02-26T13:03:39.755Z,16.60
2019-02-26T13:09:47.010Z,17.95
2019-02-26T13:15:44.676Z,20.55
2019-02-26T13:21:46.923Z,17.75
2019-02-26T13:27:49.181Z,25.17
2019-02-26T13:33:51.538Z,21.65
2019-02-26T13:39:53.886Z,25.75
2019-02-26T13:45:56.022Z,25.82
2019-02-26T13:51:58.457Z,23.90
2019-02-26T13:58:04.788Z,24.35
2019-02-26T14:04:06.264Z,18.75
2019-02-26T14:10:10.912Z,21.60
2019-02-26T14:16:15.433Z,22.55
2019-02-26T14:22:17.684Z,21.23
2019-02-26T14:28:19.925Z,25.17
2019-02-26T14:34:22.070Z,20.72
2019-02-26T14:40:24.346Z,22.00
2019-02-26T14:46:26.503Z,17.87
2019-02-26T14:52:29.793Z,18.48
2019-02-26T14:58:32.263Z,24.67
2019-02-26T15:04:34.526Z,22.32
2019-02-26T15:10:36.771Z,24.45
2019-02-26T15:16:39.220Z,32.48
2019-02-26T15:22:42.581Z,21.90
2019-02-26T15:28:44.784Z,23.98
2019-02-26T15:34:48.950Z,19.30
2019-02-26T15:40:53.316Z,19.87
2019-02-26T15:46:55.821Z,16.52
2019-02-26T15:52:58.107Z,16.48
2019-02-26T15:59:04.576Z,17.95
2019-02-26T16:05:05.551Z,22.87
2019-02-26T16:11:08.201Z,30.30
2019-02-26T16:17:12.212Z,20.20
2019-02-26T16:23:15.527Z,23.05
2019-02-26T16:29:17.824Z,22.20
2019-02-26T16:35:20.273Z,22.40
2019-02-26T16:41:22.866Z,22.13
2019-02-26T16:47:25.112Z,23.83
2019-02-26T16:53:27.548Z,25.48
2019-02-26T16:59:29.833Z,19.37
2019-02-26T17:05:32.179Z,18.62
2019-02-26T17:11:34.470Z,22.73
2019-02-26T17:17:38.784Z,16.17
2019-02-26T17:23:41.135Z,18.42
2019-02-26T17:29:43.368Z,16.37
2019-02-26T17:35:45.593Z,28.83
2019-02-26T17:41:47.959Z,18.73
2019-02-26T17:47:51.504Z,19.05
2019-02-26T17:53:54.316Z,20.20
2019-02-26T17:59:57.833Z,19.37
2019-02-26T18:06:00.634Z,18.45
2019-02-26T18:12:05.392Z,19.95
2019-02-26T18:18:09.482Z,19.92
2019-02-26T18:24:12.076Z,18.48
2019-02-26T18:30:16.442Z,16.80
2019-02-26T18:36:18.977Z,20.95
2019-02-26T18:42:23.952Z,19.60
2019-02-26T18:48:26.869Z,22.00
2019-02-26T18:54:29.371Z,17.73
2019-02-26T19:00:31.908Z,18.10
2019-02-26T19:06:37.300Z,18.73
2019-02-26T19:12:39.611Z,18.15
2019-02-26T19:18:46.079Z,14.87
2019-02-26T19:24:51.284Z,17.67
2019-02-26T19:30:58.845Z,17.48
2019-02-26T19:37:02.635Z,17.20
2019-02-26T19:43:05.554Z,17.77
2019-02-26T19:49:08.019Z,22.37
2019-02-26T19:55:15.669Z,18.37
2019-02-26T20:01:19.916Z,17.20
2019-02-26T20:07:23.681Z,19.70
2019-02-26T20:13:26.274Z,18.10
2019-02-26T20:19:34.453Z,17.25
2019-02-26T20:25:42.471Z,15.53
2019-02-26T20:31:47.019Z,18.52
2019-02-26T20:37:51.477Z,19.95
2019-02-26T20:43:53.882Z,19.77
2019-02-26T20:49:56.733Z,24.37
2019-02-26T20:55:59.040Z,17.80
2019-02-26T21:02:01.540Z,23.12
2019-02-26T21:08:03.979Z,21.93
2019-02-26T21:14:09.095Z,22.30
2019-02-26T21:20:11.756Z,22.98
2019-02-26T21:26:14.118Z,21.02
2019-02-26T21:32:16.372Z,47.25
2019-02-26T21:38:18.703Z,24.40
2019-02-26T21:44:21.105Z,22.60
2019-02-26T21:50:24.637Z,20.82
2019-02-26T21:56:26.899Z,23.65
2019-02-26T22:02:29.203Z,24.00
2019-02-26T22:08:31.507Z,22.10
2019-02-26T22:14:34.017Z,23.05
2019-02-26T22:20:37.759Z,22.48
2019-02-26T22:26:40.047Z,21.77
2019-02-26T22:32:42.243Z,27.87
2019-02-26T22:38:46.222Z,21.85
2019-02-26T22:44:49.069Z,19.90
2019-02-26T22:50:52.585Z,18.48
2019-02-26T22:56:56.884Z,22.75
2019-02-26T23:02:59.319Z,22.80
2019-02-26T23:09:01.876Z,25.35
2019-02-26T23:15:04.509Z,23.90
2019-02-26T23:21:10.577Z,19.40
2019-02-26T23:27:14.933Z,22.17
2019-02-26T23:33:16.897Z,26.70
2019-02-26T23:39:19.368Z,21.60
2019-02-26T23:45:23.931Z,19.65
2019-02-26T23:51:25.532Z,20.92
2019-02-26T23:57:27.750Z,20.23
